Time;durP1;ratioP1;P1;durP2;ratioP2;P2;SDS_P1;SDS_P2;PMS_P1;PMS_P2;Temp;Humidity;BMP_temperature;BMP_pressure;BME280_temperature;BME280_humidity;BME280_pressure;Samples;Min_cycle;Max_cycle;Signal;HPM_P1;HPM_P2
2021/05/23 00:00:40;;;;;;;;;;;;;;;15.19;64.43;99094.44;3456842;28;19930;-42
2021/05/23 00:02:21;;;;;;;;;;;;;;;15.14;63.73;99096.22;3455069;28;19979;-46
2021/05/23 00:04:03;;;;;;;;;;;;;;;15.10;63.02;99094.56;3456003;28;19965;-46
2021/05/23 00:05:44;;;;;;;;;;;;;;;15.08;63.51;99090.22;3456440;28;19980;-45
2021/05/23 00:07:26;;;;;;;;;;;;;;;15.04;64.15;99097.25;3455961;28;19933;-42
2021/05/23 00:09:07;;;;;;;;;;;;;;;14.98;64.79;99110.41;3456065;28;19936;-43
2021/05/23 00:10:50;;;;;;;;;;;;;;;14.90;63.34;99107.00;3457058;28;20469;-42
2021/05/23 00:12:32;;;;;;;;;;;;;;;14.82;66.82;99113.19;3457131;28;19936;-43
2021/05/23 00:14:14;;;;;;;;;;;;;;;14.72;69.47;99108.97;3453637;28;19929;-47
2021/05/23 00:15:57;;;;;;;;;;;;;;;14.61;67.45;99110.88;3456160;28;20295;-43
2021/05/23 00:17:38;;;;;;;;;;;;;;;14.54;69.90;99098.75;3456646;28;19930;-44
2021/05/23 00:19:22;;;;;;;;;;;;;;;14.51;71.84;99102.25;3457234;28;20346;-44
2021/05/23 00:21:04;;;;;;;;;;;;;;;14.47;72.51;99100.56;3455618;28;19929;-45
2021/05/23 00:22:45;;;;;;;;;;;;;;;14.40;72.05;99101.53;3455410;28;19929;-44
2021/05/23 00:24:26;;;;;;;;;;;;;;;14.34;74.43;99097.25;3457034;28;19929;-43
2021/05/23 00:26:08;;;;;;;;;;;;;;;14.28;74.74;99086.81;3455006;28;20393;-43
2021/05/23 00:27:49;;;;;;;;;;;;;;;14.25;74.86;99089.47;3456365;28;20344;-43
2021/05/23 00:29:31;;;;;;;;;;;;;;;14.24;75.42;99090.34;3456104;28;19929;-45
2021/05/23 00:31:12;;;;;;;;;;;;;;;14.23;75.90;99097.31;3456916;28;19975;-44
2021/05/23 00:32:53;;;;;;;;;;;;;;;14.24;76.53;99099.03;3455859;28;20315;-45
2021/05/23 00:34:34;;;;;;;;;;;;;;;14.27;77.05;99095.53;3454828;28;19930;-46
2021/05/23 00:36:16;;;;;;;;;;;;;;;14.26;77.82;99088.59;3456092;28;19977;-45
2021/05/23 00:37:58;;;;;;;;;;;;;;;14.28;78.32;99086.81;3456699;28;20067;-43
2021/05/23 00:39:39;;;;;;;;;;;;;;;14.29;78.83;99093.78;3456285;28;20382;-45
2021/05/23 00:41:21;;;;;;;;;;;;;;;14.29;79.03;99091.19;3460128;22;20036;-44
2021/05/23 00:43:02;;;;;;;;;;;;;;;14.27;78.86;99095.53;3468832;28;19940;-44
2021/05/23 00:44:44;;;;;;;;;;;;;;;14.26;79.12;99089.44;3467499;28;20485;-44
2021/05/23 00:46:25;;;;;;;;;;;;;;;14.23;79.30;99089.47;3466822;28;20342;-44
2021/05/23 00:48:07;;;;;;;;;;;;;;;14.23;79.51;99096.44;3469952;28;19968;-44
2021/05/23 00:49:48;;;;;;;;;;;;;;;14.20;79.65;99097.34;3466949;28;19929;-43
2021/05/23 00:51:29;;;;;;;;;;;;;;;14.17;79.39;99094.75;3469230;28;19987;-47
2021/05/23 00:53:11;;;;;;;;;;;;;;;14.15;78.97;99101.75;3467620;28;19965;-48
2021/05/23 00:54:52;;;;;;;;;;;;;;;14.11;79.90;99097.41;3468954;28;19929;-44
2021/05/23 00:56:34;;;;;;;;;;;;;;;14.11;80.13;99101.78;3458485;28;19975;-45
2021/05/23 00:58:18;;;;;;;;;;;;;;;14.07;79.85;99114.00;3455000;28;19930;-47
2021/05/23 00:59:59;;;;;;;;;;;;;;;14.06;79.55;99109.66;3464426;28;19976;-49
2021/05/23 01:02:02;;;;;;;;;;;;;;;14.03;80.48;99107.94;3463932;28;19930;-48
2021/05/23 01:03:59;;;;;;;;;;;;;;;14.04;80.21;99103.59;3457201;28;19929;-45
2021/05/23 01:05:40;;;;;;;;;;;;;;;14.04;81.06;99103.59;3469306;28;20387;-44
2021/05/23 01:07:21;;;;;;;;;;;;;;;14.06;81.44;99109.66;3466371;28;19936;-46
2021/05/23 01:09:03;;;;;;;;;;;;;;;14.06;81.75;99104.47;3455756;28;19937;-47
2021/05/23 01:10:50;;;;;;;;;;;;;;;14.06;82.27;99094.88;3465172;28;19929;-44
2021/05/23 01:12:47;;;;;;;;;;;;;;;14.06;82.43;99105.31;3468585;28;19987;-44
2021/05/23 01:14:43;;;;;;;;;;;;;;;14.05;82.32;99102.72;3467855;28;19929;-43
2021/05/23 01:16:29;;;;;;;;;;;;;;;14.02;82.93;99100.13;3467515;28;19968;-45
2021/05/23 01:18:13;;;;;;;;;;;;;;;14.01;83.22;99108.84;3469152;28;19933;-47
2021/05/23 01:20:02;;;;;;;;;;;;;;;13.99;83.49;99111.47;3460635;28;19929;-48
2021/05/23 01:21:45;;;;;;;;;;;;;;;13.98;83.33;99098.44;3456164;28;19929;-44
2021/05/23 01:23:29;;;;;;;;;;;;;;;13.96;83.52;99103.66;3468611;28;19929;-44
2021/05/23 01:25:13;;;;;;;;;;;;;;;13.96;83.74;99113.25;3465799;28;19979;-44
2021/05/23 01:26:54;;;;;;;;;;;;;;;13.95;84.09;99120.19;3455509;28;19929;-47
2021/05/23 01:28:39;;;;;;;;;;;;;;;13.93;84.06;99119.31;3456822;28;20390;-48
2021/05/23 01:30:25;;;;;;;;;;;;;;;13.93;84.50;99123.69;3468211;28;19939;-47
2021/05/23 01:32:08;;;;;;;;;;;;;;;13.92;84.57;99121.94;3467119;28;20389;-47
2021/05/23 01:33:49;;;;;;;;;;;;;;;13.92;84.48;99124.56;3467533;28;20395;-47
2021/05/23 01:35:32;;;;;;;;;;;;;;;13.93;84.74;99126.28;3455591;28;19929;-43
2021/05/23 01:37:14;;;;;;;;;;;;;;;13.92;84.77;99125.44;3454105;28;19929;-43
2021/05/23 01:38:56;;;;;;;;;;;;;;;13.92;84.99;99127.16;3466501;28;19977;-43
2021/05/23 01:40:39;;;;;;;;;;;;;;;13.92;85.22;99127.16;3467861;28;20433;-43
2021/05/23 01:42:21;;;;;;;;;;;;;;;13.90;85.29;99122.00;3467877;28;19979;-43
2021/05/23 01:44:03;;;;;;;;;;;;;;;13.89;85.71;99126.31;3457937;28;20363;-43
2021/05/23 01:45:44;;;;;;;;;;;;;;;13.90;85.50;99128.06;3453946;28;20415;-43
2021/05/23 01:47:25;;;;;;;;;;;;;;;13.88;85.88;99129.81;3464436;28;20349;-43
2021/05/23 01:49:08;;;;;;;;;;;;;;;13.88;86.18;99129.81;3466177;28;20310;-43
2021/05/23 01:50:49;;;;;;;;;;;;;;;13.86;85.91;99128.94;3468700;28;19976;-43
2021/05/23 01:52:31;;;;;;;;;;;;;;;13.85;86.02;99134.19;3466693;28;20038;-43
2021/05/23 01:54:12;;;;;;;;;;;;;;;13.81;86.56;99125.53;3467775;28;19936;-43
2021/05/23 01:55:53;;;;;;;;;;;;;;;13.76;86.86;99137.75;3457838;28;20009;-43
2021/05/23 01:57:34;;;;;;;;;;;;;;;13.71;86.92;99135.16;3454392;28;20440;-43
2021/05/23 01:59:16;;;;;;;;;;;;;;;13.69;87.25;99130.84;3468538;28;19979;-43
2021/05/23 02:00:57;;;;;;;;;;;;;;;13.66;87.02;99136.06;3466133;28;19956;-44
2021/05/23 02:02:38;;;;;;;;;;;;;;;13.61;87.45;99140.44;3468630;28;19936;-43
2021/05/23 02:04:21;;;;;;;;;;;;;;;13.58;87.48;99143.06;3460071;28;19936;-44
2021/05/23 02:06:03;;;;;;;;;;;;;;;13.55;87.73;99143.09;3457502;28;19936;-43
2021/05/23 02:07:44;;;;;;;;;;;;;;;13.51;87.97;99153.56;3467338;28;19929;-43
2021/05/23 02:09:26;;;;;;;;;;;;;;;13.50;87.95;99157.03;3466127;28;19933;-43
2021/05/23 02:11:08;;;;;;;;;;;;;;;13.49;88.17;99146.59;3468552;28;19965;-43
2021/05/23 02:12:50;;;;;;;;;;;;;;;13.48;88.53;99150.97;3466182;28;20284;-43
2021/05/23 02:14:31;;;;;;;;;;;;;;;13.48;88.42;99152.72;3466520;28;20291;-43
2021/05/23 02:16:13;;;;;;;;;;;;;;;13.47;88.14;99151.81;3466467;28;19929;-43
2021/05/23 02:17:54;;;;;;;;;;;;;;;13.47;88.44;99154.44;3467942;28;19984;-43
2021/05/23 02:19:35;;;;;;;;;;;;;;;13.46;88.62;99155.31;3467427;28;19964;-43
2021/05/23 02:21:17;;;;;;;;;;;;;;;13.43;89.31;99162.28;3466194;28;19960;-43
2021/05/23 02:22:59;;;;;;;;;;;;;;;13.38;89.49;99170.13;3457261;28;19929;-43
2021/05/23 02:24:41;;;;;;;;;;;;;;;13.37;90.01;99167.53;3465118;28;20405;-43
2021/05/23 02:26:23;;;;;;;;;;;;;;;13.30;90.04;99156.25;3470633;28;19972;-44
2021/05/23 02:28:05;;;;;;;;;;;;;;;13.31;90.33;99171.03;3459386;28;19976;-44
2021/05/23 02:29:46;;;;;;;;;;;;;;;13.29;90.86;99171.03;3462406;28;20402;-43
2021/05/23 02:31:29;;;;;;;;;;;;;;;13.28;91.09;99173.66;3469293;28;19971;-43
2021/05/23 02:33:11;;;;;;;;;;;;;;;13.25;90.99;99177.16;3468595;28;19936;-46
2021/05/23 02:34:52;;;;;;;;;;;;;;;13.23;91.30;99173.69;3470942;28;19987;-46
2021/05/23 02:36:33;;;;;;;;;;;;;;;13.21;91.67;99179.75;3465993;28;19929;-43
2021/05/23 02:38:16;;;;;;;;;;;;;;;13.19;91.94;99173.72;3457323;28;20354;-48
2021/05/23 02:40:01;;;;;;;;;;;;;;;13.18;91.78;99170.25;3461737;28;19933;-46
2021/05/23 02:41:43;;;;;;;;;;;;;;;13.15;91.95;99175.47;3456417;28;19988;-46
2021/05/23 02:43:24;;;;;;;;;;;;;;;13.12;92.28;99175.47;3463587;28;20341;-46
2021/05/23 02:45:06;;;;;;;;;;;;;;;13.12;92.28;99173.75;3466848;28;20390;-46
2021/05/23 02:46:48;;;;;;;;;;;;;;;13.12;92.56;99175.47;3470723;28;20398;-46
2021/05/23 02:48:29;;;;;;;;;;;;;;;13.12;92.41;99178.97;3468043;28;20361;-46
2021/05/23 02:50:11;;;;;;;;;;;;;;;13.12;92.79;99173.75;3470099;28;20049;-46
2021/05/23 02:51:52;;;;;;;;;;;;;;;13.12;92.79;99171.16;3468808;28;20430;-43
2021/05/23 02:53:33;;;;;;;;;;;;;;;13.13;92.72;99175.47;3469713;28;20433;-44
2021/05/23 02:55:16;;;;;;;;;;;;;;;13.13;93.05;99179.81;3459204;28;20393;-43
2021/05/23 02:56:58;;;;;;;;;;;;;;;13.12;93.02;99176.34;3460031;28;19956;-43
2021/05/23 02:58:39;;;;;;;;;;;;;;;13.12;92.95;99175.47;3470571;28;20015;-43
2021/05/23 03:00:21;;;;;;;;;;;;;;;13.13;93.17;99174.59;3468271;28;19933;-43
2021/05/23 03:02:03;;;;;;;;;;;;;;;13.14;93.09;99176.31;3469807;28;20302;-43
2021/05/23 03:03:44;;;;;;;;;;;;;;;13.17;93.00;99180.66;3468148;28;19928;-43
2021/05/23 03:05:25;;;;;;;;;;;;;;;13.20;92.97;99178.06;3469258;28;19951;-43
2021/05/23 03:07:06;;;;;;;;;;;;;;;13.26;93.10;99183.22;3468745;28;19975;-43
2021/05/23 03:08:48;;;;;;;;;;;;;;;13.31;92.93;99173.63;3468814;28;19956;-44
2021/05/23 03:10:31;;;;;;;;;;;;;;;13.33;92.63;99175.38;3457011;28;19945;-48
2021/05/23 03:12:12;;;;;;;;;;;;;;;13.36;92.29;99174.47;3458492;28;19990;-46
2021/05/23 03:14:12;;;;;;;;;;;;;;;13.40;92.37;99178.78;3468370;28;19929;-47
2021/05/23 03:15:53;;;;;;;;;;;;;;;13.41;92.32;99177.94;3468837;28;19940;-47
2021/05/23 03:17:34;;;;;;;;;;;;;;;13.43;92.40;99176.19;3467884;28;20349;-47
2021/05/23 03:19:15;;;;;;;;;;;;;;;13.46;92.31;99183.97;3470164;28;19983;-43
2021/05/23 03:20:57;;;;;;;;;;;;;;;13.48;92.24;99183.97;3466435;28;20394;-43
2021/05/23 03:22:39;;;;;;;;;;;;;;;13.49;91.75;99186.56;3456826;28;19933;-44
2021/05/23 03:24:20;;;;;;;;;;;;;;;13.50;91.98;99188.28;3459762;28;19937;-43
2021/05/23 03:26:01;;;;;;;;;;;;;;;13.51;91.97;99183.94;3455529;28;19929;-43
2021/05/23 03:27:43;;;;;;;;;;;;;;;13.51;91.95;99191.75;3457357;28;20295;-43
2021/05/23 03:29:24;;;;;;;;;;;;;;;13.52;91.88;99191.75;3467952;28;20326;-46
2021/05/23 03:31:05;;;;;;;;;;;;;;;13.54;91.83;99190.88;3470113;28;20409;-47
2021/05/23 03:32:46;;;;;;;;;;;;;;;13.55;91.60;99188.28;3463889;28;20310;-46
2021/05/23 03:34:27;;;;;;;;;;;;;;;13.57;91.60;99185.66;3457412;28;19929;-46
2021/05/23 03:36:09;;;;;;;;;;;;;;;13.59;91.38;99192.59;3462897;28;20410;-46
2021/05/23 03:37:50;;;;;;;;;;;;;;;13.64;91.54;99192.56;3455834;28;19977;-46
2021/05/23 03:39:31;;;;;;;;;;;;;;;13.67;91.15;99200.34;3461514;28;19929;-46
2021/05/23 03:41:13;;;;;;;;;;;;;;;13.67;88.83;99197.72;3468609;28;19929;-47
2021/05/23 03:42:55;;;;;;;;;;;;;;;13.68;88.63;99195.13;3457530;28;19980;-47
2021/05/23 03:44:36;;;;;;;;;;;;;;;13.71;89.09;99189.03;3462654;28;19991;-46
2021/05/23 03:46:17;;;;;;;;;;;;;;;13.75;89.39;99200.31;3470092;28;19929;-46
2021/05/23 03:47:58;;;;;;;;;;;;;;;13.79;89.98;99202.88;3467683;28;19929;-44
2021/05/23 03:49:39;;;;;;;;;;;;;;;13.82;89.26;99207.22;3469386;28;19980;-43
2021/05/23 03:51:20;;;;;;;;;;;;;;;13.87;89.51;99208.91;3460725;28;19980;-48
2021/05/23 03:53:02;;;;;;;;;;;;;;;13.90;88.83;99218.47;3459741;28;20295;-47
2021/05/23 03:54:43;;;;;;;;;;;;;;;13.92;87.91;99219.31;3469079;28;19929;-47
2021/05/23 03:56:24;;;;;;;;;;;;;;;13.93;87.34;99221.03;3466890;28;19929;-46
2021/05/23 03:58:07;;;;;;;;;;;;;;;13.90;86.21;99215.84;3469813;28;20095;-46
2021/05/23 03:59:48;;;;;;;;;;;;;;;13.91;87.23;99212.34;3467571;28;19976;-46
2021/05/23 04:01:29;;;;;;;;;;;;;;;13.92;87.07;99221.03;3469269;28;19983;-46
2021/05/23 04:03:10;;;;;;;;;;;;;;;13.92;86.66;99218.44;3461418;28;19937;-43
2021/05/23 04:04:56;;;;;;;;;;;;;;;13.96;86.96;99225.38;3455527;28;19960;-43
2021/05/23 04:06:37;;;;;;;;;;;;;;;14.03;86.94;99221.84;3462738;28;20038;-45
2021/05/23 04:08:18;;;;;;;;;;;;;;;14.14;87.30;99234.78;3468635;28;19936;-43
2021/05/23 04:10:00;;;;;;;;;;;;;;;14.23;87.31;99230.34;3469810;28;19929;-46
2021/05/23 04:11:44;;;;;;;;;;;;;;;14.30;87.36;99241.59;3467401;28;19929;-46
2021/05/23 04:13:27;;;;;;;;;;;;;;;14.35;87.30;99244.22;3467463;28;19995;-46
2021/05/23 04:15:08;;;;;;;;;;;;;;;14.33;85.79;99244.22;3467752;28;20311;-46
2021/05/23 04:16:50;;;;;;;;;;;;;;;14.33;86.42;99244.22;3467735;28;19933;-46
2021/05/23 04:18:31;;;;;;;;;;;;;;;14.31;85.68;99251.22;3469175;28;19983;-47
2021/05/23 04:20:14;;;;;;;;;;;;;;;14.30;85.40;99248.59;3467749;28;20428;-47
2021/05/23 04:21:55;;;;;;;;;;;;;;;14.32;86.26;99260.75;3469785;28;19968;-43
2021/05/23 04:23:36;;;;;;;;;;;;;;;14.26;85.90;99261.63;3462866;28;20023;-44
2021/05/23 04:25:18;;;;;;;;;;;;;;;14.28;86.25;99259.03;3455234;28;19970;-43
2021/05/23 04:26:59;;;;;;;;;;;;;;;14.27;86.55;99258.16;3462689;28;19936;-43
2021/05/23 04:28:41;;;;;;;;;;;;;;;14.26;85.10;99264.25;3467633;28;19977;-43
2021/05/23 04:30:24;;;;;;;;;;;;;;;14.24;85.92;99262.53;3469460;28;19972;-46
2021/05/23 04:32:05;;;;;;;;;;;;;;;14.22;85.71;99259.94;3467641;28;20225;-43
2021/05/23 04:33:47;;;;;;;;;;;;;;;14.19;86.32;99262.56;3469892;28;19929;-43
2021/05/23 04:35:28;;;;;;;;;;;;;;;14.16;86.27;99257.38;3462644;28;20405;-43
2021/05/23 04:37:09;;;;;;;;;;;;;;;14.14;85.72;99260.88;3456135;28;19976;-43
2021/05/23 04:38:50;;;;;;;;;;;;;;;14.13;85.55;99260.03;3457246;28;20021;-46
2021/05/23 04:40:32;;;;;;;;;;;;;;;14.10;85.30;99257.44;3462236;28;19959;-43
2021/05/23 04:42:13;;;;;;;;;;;;;;;14.12;85.39;99258.28;3468773;28;19965;-43
2021/05/23 04:44:15;;;;;;;;;;;;;;;14.14;84.63;99268.72;3467435;28;20040;-47
2021/05/23 04:45:57;;;;;;;;;;;;;;;14.15;84.55;99271.31;3469592;28;20353;-46
2021/05/23 04:47:38;;;;;;;;;;;;;;;14.17;84.49;99279.97;3467641;28;20029;-43
2021/05/23 04:49:19;;;;;;;;;;;;;;;14.21;84.56;99281.69;3468186;28;20373;-43
2021/05/23 04:51:00;;;;;;;;;;;;;;;14.32;84.16;99281.63;3457894;28;19993;-43
2021/05/23 04:52:41;;;;;;;;;;;;;;;14.47;83.80;99285.88;3454930;28;20314;-43
2021/05/23 04:54:23;;;;;;;;;;;;;;;14.62;82.58;99287.47;3466804;28;20357;-46
2021/05/23 04:56:04;;;;;;;;;;;;;;;14.71;81.96;99278.69;3466260;28;19999;-46
2021/05/23 04:57:45;;;;;;;;;;;;;;;14.82;81.29;99284.69;3470209;28;19940;-45
2021/05/23 04:59:27;;;;;;;;;;;;;;;14.87;78.86;99272.47;3468109;28;19929;-46
2021/05/23 05:01:09;;;;;;;;;;;;;;;14.96;79.75;99271.47;3468260;28;19929;-43
2021/05/23 05:02:50;;;;;;;;;;;;;;;15.06;79.42;99273.09;3458055;28;20406;-47
2021/05/23 05:04:31;;;;;;;;;;;;;;;15.16;77.97;99274.75;3456792;28;20022;-46
2021/05/23 05:06:12;;;;;;;;;;;;;;;15.26;78.42;99270.28;3469128;28;19929;-46
2021/05/23 05:07:53;;;;;;;;;;;;;;;15.31;76.71;99270.22;3467463;28;20414;-43
2021/05/23 05:09:34;;;;;;;;;;;;;;;15.31;75.59;99267.59;3469920;28;20395;-46
2021/05/23 05:11:16;;;;;;;;;;;;;;;15.39;76.49;99276.22;3461177;28;19937;-43
2021/05/23 05:12:57;;;;;;;;;;;;;;;15.48;76.09;99270.88;3455099;28;19969;-43
2021/05/23 05:14:40;;;;;;;;;;;;;;;15.56;76.34;99282.09;3466083;28;20027;-43
2021/05/23 05:16:21;;;;;;;;;;;;;;;15.55;74.48;99276.91;3468263;28;19955;-44
2021/05/23 05:18:02;;;;;;;;;;;;;;;15.51;74.15;99278.69;3455911;28;20375;-43
2021/05/23 05:19:44;;;;;;;;;;;;;;;15.53;73.74;99276.91;3454630;28;19929;-45
2021/05/23 05:21:25;;;;;;;;;;;;;;;15.56;73.66;99276.03;3466777;28;20348;-46
2021/05/23 05:23:06;;;;;;;;;;;;;;;15.64;74.75;99278.56;3467516;28;20022;-45
2021/05/23 05:24:48;;;;;;;;;;;;;;;15.77;74.10;99282.72;3468921;28;19991;-43
2021/05/23 05:26:29;;;;;;;;;;;;;;;15.85;72.94;99290.47;3468075;28;19933;-44
2021/05/23 05:28:10;;;;;;;;;;;;;;;15.89;72.84;99285.16;3467296;28;20354;-43
2021/05/23 05:29:52;;;;;;;;;;;;;;;15.91;73.04;99296.50;3470452;28;19964;-44
2021/05/23 05:31:33;;;;;;;;;;;;;;;15.93;72.49;99293.84;3466748;28;19929;-45
2021/05/23 05:33:14;;;;;;;;;;;;;;;15.95;72.00;99297.31;3469555;28;20378;-47
2021/05/23 05:34:55;;;;;;;;;;;;;;;15.86;72.93;99305.28;3466862;28;20438;-43
2021/05/23 05:36:36;;;;;;;;;;;;;;;15.85;72.69;99300.94;3468971;28;19936;-43
2021/05/23 05:38:18;;;;;;;;;;;;;;;15.84;72.96;99307.03;3467128;28;19972;-47
2021/05/23 05:39:59;;;;;;;;;;;;;;;15.89;72.95;99302.63;3466483;28;20381;-45
2021/05/23 05:41:40;;;;;;;;;;;;;;;15.90;71.67;99305.22;3469494;28;20391;-46
2021/05/23 05:43:21;;;;;;;;;;;;;;;15.87;72.25;99300.03;3463200;28;19930;-44
2021/05/23 05:45:03;;;;;;;;;;;;;;;15.92;72.12;99303.44;3456932;28;20419;-45
2021/05/23 05:46:45;;;;;;;;;;;;;;;16.07;71.50;99299.75;3463092;28;19929;-43
2021/05/23 05:48:26;;;;;;;;;;;;;;;16.18;70.67;99304.81;3454803;28;19933;-45
2021/05/23 05:50:07;;;;;;;;;;;;;;;16.28;69.90;99306.44;3461391;28;19964;-45
2021/05/23 05:51:49;;;;;;;;;;;;;;;16.28;70.72;99306.44;3465324;28;19983;-43
2021/05/23 05:53:32;;;;;;;;;;;;;;;16.26;70.19;99308.19;3455486;28;19929;-44
2021/05/23 05:55:13;;;;;;;;;;;;;;;16.32;70.08;99309.84;3464421;28;20406;-46
2021/05/23 05:56:55;;;;;;;;;;;;;;;16.30;68.54;99309.88;3470248;28;19929;-43
2021/05/23 05:58:55;;;;;;;;;;;;;;;16.25;67.79;99310.84;3469280;28;20025;-44
2021/05/23 06:00:36;;;;;;;;;;;;;;;16.34;68.15;99308.94;3470697;28;19940;-45
2021/05/23 06:02:18;;;;;;;;;;;;;;;16.34;68.27;99315.94;3469589;28;19982;-43
2021/05/23 06:03:59;;;;;;;;;;;;;;;16.16;68.88;99324.94;3468598;28;19929;-46
2021/05/23 06:05:40;;;;;;;;;;;;;;;15.97;70.36;99326.94;3458376;28;20015;-43
2021/05/23 06:07:21;;;;;;;;;;;;;;;16.00;70.44;99336.47;3456442;28;20027;-44
2021/05/23 06:09:02;;;;;;;;;;;;;;;16.06;69.83;99333.78;3471255;28;19961;-44
2021/05/23 06:10:48;;;;;;;;;;;;;;;16.19;68.81;99331.84;3469488;28;19929;-45
2021/05/23 06:12:30;;;;;;;;;;;;;;;16.31;68.72;99334.28;3470664;28;19940;-46
2021/05/23 06:14:10;;;;;;;;;;;;;;;16.39;66.23;99324.56;3467813;28;19936;-44
2021/05/23 06:15:53;;;;;;;;;;;;;;;16.52;65.70;99327.84;3468362;28;19933;-45
2021/05/23 06:17:34;;;;;;;;;;;;;;;16.64;67.46;99332.03;3458018;28;19929;-43
2021/05/23 06:19:16;;;;;;;;;;;;;;;16.79;65.15;99323.94;3461996;28;19976;-45
2021/05/23 06:20:57;;;;;;;;;;;;;;;16.86;65.24;99327.31;3470159;28;20389;-44
2021/05/23 06:22:38;;;;;;;;;;;;;;;16.85;66.17;99331.69;3462186;28;19940;-45
2021/05/23 06:24:19;;;;;;;;;;;;;;;16.70;64.82;99335.41;3456943;28;19936;-44
2021/05/23 06:26:01;;;;;;;;;;;;;;;16.52;65.21;99335.72;3462156;28;20291;-45
2021/05/23 06:27:42;;;;;;;;;;;;;;;16.42;65.63;99334.13;3468836;28;20362;-45
2021/05/23 06:29:23;;;;;;;;;;;;;;;16.39;66.13;99342.91;3457507;28;20031;-44
2021/05/23 06:31:05;;;;;;;;;;;;;;;16.50;66.99;99329.66;3465007;28;19929;-45
2021/05/23 06:32:46;;;;;;;;;;;;;;;16.57;66.43;99327.78;3470344;28;19999;-46
2021/05/23 06:34:27;;;;;;;;;;;;;;;16.66;66.83;99335.50;3469067;28;19968;-44
2021/05/23 06:36:08;;;;;;;;;;;;;;;16.70;65.51;99337.16;3470454;28;19929;-45
2021/05/23 06:37:49;;;;;;;;;;;;;;;16.63;65.51;99339.00;3471858;28;19976;-44
2021/05/23 06:39:31;;;;;;;;;;;;;;;16.69;64.40;99341.53;3466458;28;20326;-44
2021/05/23 06:41:12;;;;;;;;;;;;;;;16.82;65.20;99339.59;3457592;28;19937;-45
2021/05/23 06:42:53;;;;;;;;;;;;;;;16.86;64.93;99330.78;3463993;28;19981;-45
2021/05/23 06:44:34;;;;;;;;;;;;;;;16.98;65.00;99336.72;3456873;28;19973;-44
2021/05/23 06:46:16;;;;;;;;;;;;;;;17.10;64.13;99332.13;3462489;28;20024;-44
2021/05/23 06:47:57;;;;;;;;;;;;;;;17.14;62.51;99332.06;3468430;28;19975;-44
2021/05/23 06:49:44;;;;;;;;;;;;;;;16.98;62.97;99329.72;3470152;28;19929;-44
2021/05/23 06:51:25;;;;;;;;;;;;;;;16.84;63.88;99331.72;3462251;28;20409;-45
2021/05/23 06:53:06;;;;;;;;;;;;;;;16.89;63.76;99336.00;3461954;28;19979;-45
2021/05/23 06:54:47;;;;;;;;;;;;;;;17.09;63.53;99337.38;3469301;28;20394;-45
2021/05/23 06:56:29;;;;;;;;;;;;;;;17.27;62.51;99336.19;3468639;28;19972;-46
2021/05/23 06:58:10;;;;;;;;;;;;;;;17.39;63.86;99335.09;3457721;28;19964;-44
2021/05/23 06:59:51;;;;;;;;;;;;;;;17.59;62.20;99329.44;3462070;28;19936;-45
2021/05/23 07:01:33;;;;;;;;;;;;;;;17.76;62.04;99334.34;3470814;28;19971;-44
2021/05/23 07:03:14;;;;;;;;;;;;;;;17.90;59.29;99337.56;3469407;28;19964;-44
2021/05/23 07:04:55;;;;;;;;;;;;;;;18.00;57.07;99335.63;3470937;28;20402;-45
2021/05/23 07:06:37;;;;;;;;;;;;;;;18.14;59.18;99328.28;3459799;28;19940;-46
2021/05/23 07:08:18;;;;;;;;;;;;;;;18.25;58.54;99333.28;3456518;28;19973;-45
2021/05/23 07:09:59;;;;;;;;;;;;;;;18.26;57.12;99332.41;3472049;28;19936;-44
2021/05/23 07:11:41;;;;;;;;;;;;;;;18.23;59.09;99338.56;3467637;28;20382;-44
2021/05/23 07:13:23;;;;;;;;;;;;;;;18.10;58.06;99336.25;3468741;28;19929;-46
2021/05/23 07:15:06;;;;;;;;;;;;;;;18.08;59.45;99346.78;3468080;28;19928;-46
2021/05/23 07:16:48;;;;;;;;;;;;;;;18.10;58.81;99339.78;3469699;28;20412;-45
2021/05/23 07:18:29;;;;;;;;;;;;;;;18.08;57.98;99332.81;3469689;28;20426;-46
2021/05/23 07:20:11;;;;;;;;;;;;;;;18.03;57.36;99336.41;3469727;28;20306;-45
2021/05/23 07:21:52;;;;;;;;;;;;;;;18.05;58.19;99331.97;3457073;28;20426;-45
2021/05/23 07:23:34;;;;;;;;;;;;;;;18.14;58.23;99333.53;3456447;28;19930;-45
2021/05/23 07:25:15;;;;;;;;;;;;;;;18.25;57.53;99331.53;3467712;28;19983;-46
2021/05/23 07:26:56;;;;;;;;;;;;;;;18.31;56.77;99327.91;3468099;28;19933;-45
2021/05/23 07:28:37;;;;;;;;;;;;;;;18.18;56.90;99334.34;3469886;28;19960;-44
2021/05/23 07:30:19;;;;;;;;;;;;;;;18.11;56.82;99338.00;3469433;28;20398;-45
2021/05/23 07:32:00;;;;;;;;;;;;;;;18.15;57.13;99337.03;3468563;28;19983;-47
2021/05/23 07:33:41;;;;;;;;;;;;;;;18.22;56.88;99330.72;3457441;28;19937;-45
2021/05/23 07:35:23;;;;;;;;;;;;;;;18.37;55.24;99329.53;3462110;28;20365;-45
2021/05/23 07:37:04;;;;;;;;;;;;;;;18.56;55.08;99330.81;3457750;28;19937;-45
2021/05/23 07:38:45;;;;;;;;;;;;;;;18.71;53.98;99333.97;3466303;28;19929;-45
2021/05/23 07:40:27;;;;;;;;;;;;;;;18.77;53.70;99337.31;3469800;28;19929;-46
2021/05/23 07:42:08;;;;;;;;;;;;;;;18.87;54.21;99329.22;3468225;28;19936;-46
2021/05/23 07:43:49;;;;;;;;;;;;;;;19.08;53.65;99333.91;3468530;28;19936;-45
2021/05/23 07:45:31;;;;;;;;;;;;;;;19.28;52.53;99329.88;3469833;28;19929;-45
2021/05/23 07:47:13;;;;;;;;;;;;;;;19.26;52.23;99327.28;3463713;28;19984;-45
2021/05/23 07:48:54;;;;;;;;;;;;;;;19.16;51.96;99331.94;3458873;28;19929;-46
2021/05/23 07:50:36;;;;;;;;;;;;;;;19.21;53.18;99328.31;3468118;28;20395;-45
2021/05/23 07:52:17;;;;;;;;;;;;;;;19.12;52.25;99325.00;3468843;28;19929;-44
2021/05/23 07:53:58;;;;;;;;;;;;;;;19.00;53.23;99333.25;3459298;28;19929;-45
2021/05/23 07:55:40;;;;;;;;;;;;;;;18.86;52.23;99332.72;3457909;28;19930;-46
2021/05/23 07:57:21;;;;;;;;;;;;;;;18.69;51.04;99327.88;3470327;28;19976;-45
2021/05/23 07:59:02;;;;;;;;;;;;;;;18.74;52.67;99328.63;3468806;28;19929;-45
2021/05/23 08:00:43;;;;;;;;;;;;;;;18.96;52.40;99327.19;3469839;28;19929;-45
2021/05/23 08:02:25;;;;;;;;;;;;;;;19.21;53.24;99323.91;3467724;28;19959;-46
2021/05/23 08:04:07;;;;;;;;;;;;;;;19.45;51.99;99324.16;3469746;28;19940;-46
2021/05/23 08:05:48;;;;;;;;;;;;;;;19.61;50.36;99327.22;3469125;28;19983;-46
2021/05/23 08:07:29;;;;;;;;;;;;;;;19.64;50.09;99335.03;3468655;28;19929;-45
2021/05/23 08:09:10;;;;;;;;;;;;;;;19.64;49.70;99332.38;3470138;28;19936;-46
2021/05/23 08:10:52;;;;;;;;;;;;;;;19.57;48.78;99334.31;3469634;28;19929;-46
2021/05/23 08:12:33;;;;;;;;;;;;;;;19.49;50.04;99341.56;3469475;28;19955;-46
2021/05/23 08:14:15;;;;;;;;;;;;;;;19.19;49.65;99354.66;3466442;28;19940;-47
2021/05/23 08:15:58;;;;;;;;;;;;;;;19.03;50.21;99342.81;3469335;28;19933;-45
2021/05/23 08:17:41;;;;;;;;;;;;;;;19.09;50.99;99345.28;3457912;28;20354;-45
2021/05/23 08:19:22;;;;;;;;;;;;;;;19.29;51.07;99340.34;3454591;28;19999;-45
2021/05/23 08:21:03;;;;;;;;;;;;;;;19.50;50.36;99344.16;3463762;28;19929;-46
2021/05/23 08:22:44;;;;;;;;;;;;;;;19.62;50.67;99339.44;3468199;28;19937;-46
2021/05/23 08:24:26;;;;;;;;;;;;;;;19.73;51.45;99338.22;3469747;28;19929;-46
2021/05/23 08:26:07;;;;;;;;;;;;;;;19.85;50.23;99350.22;3461681;28;19933;-45
2021/05/23 08:27:48;;;;;;;;;;;;;;;19.89;48.94;99349.19;3455462;28;19953;-46
2021/05/23 08:29:30;;;;;;;;;;;;;;;19.76;48.17;99353.09;3458570;28;19933;-45
2021/05/23 08:31:11;;;;;;;;;;;;;;;19.53;48.60;99353.72;3467474;28;20382;-46
2021/05/23 08:32:53;;;;;;;;;;;;;;;19.43;48.03;99353.13;3470746;28;19929;-46
2021/05/23 08:34:38;;;;;;;;;;;;;;;19.48;47.57;99355.66;3461360;28;20002;-45
2021/05/23 08:36:19;;;;;;;;;;;;;;;19.60;47.05;99357.03;3460079;28;19936;-45
2021/05/23 08:38:01;;;;;;;;;;;;;;;19.77;47.22;99353.03;3468468;28;19929;-46
2021/05/23 08:39:43;;;;;;;;;;;;;;;19.83;47.29;99366.94;3469672;28;19936;-46
2021/05/23 08:41:24;;;;;;;;;;;;;;;19.85;47.43;99371.28;3468489;28;19929;-45
2021/05/23 08:43:08;;;;;;;;;;;;;;;19.93;46.10;99365.78;3467153;28;19969;-45
2021/05/23 08:44:50;;;;;;;;;;;;;;;20.06;47.41;99366.25;3469283;28;20353;-45
2021/05/23 08:46:32;;;;;;;;;;;;;;;20.29;47.25;99363.81;3466675;28;19929;-45
2021/05/23 08:48:16;;;;;;;;;;;;;;;20.50;46.51;99358.75;3469480;28;19936;-45
2021/05/23 08:49:58;;;;;;;;;;;;;;;20.44;43.77;99351.06;3468347;28;19936;-45
2021/05/23 08:51:39;;;;;;;;;;;;;;;20.32;43.54;99360.19;3469004;28;19990;-45